sensor_id;sensor_type;location;lat;lon;timestamp;P1;durP1;ratioP1;P2;durP2;ratioP2
11328;SDS011;5719;42.714;23.732;2023-03-14T00:01:10;10.75;;;5.25;;
11328;SDS011;5719;42.714;23.732;2023-03-14T00:03:38;10.30;;;4.85;;
11328;SDS011;5719;42.714;23.732;2023-03-14T00:06:06;10.55;;;4.85;;
11328;SDS011;5719;42.714;23.732;2023-03-14T00:08:34;11.05;;;5.70;;
11328;SDS011;5719;42.714;23.732;2023-03-14T00:11:03;17.80;;;7.53;;
11328;SDS011;5719;42.714;23.732;2023-03-14T00:13:31;26.27;;;11.48;;
11328;SDS011;5719;42.714;23.732;2023-03-14T00:16:02;20.13;;;8.40;;
11328;SDS011;5719;42.714;23.732;2023-03-14T00:18:30;19.35;;;8.07;;
11328;SDS011;5719;42.714;23.732;2023-03-14T00:20:58;22.85;;;9.40;;
11328;SDS011;5719;42.714;23.732;2023-03-14T00:23:25;17.83;;;6.80;;
11328;SDS011;5719;42.714;23.732;2023-03-14T00:25:53;12.75;;;6.15;;
11328;SDS011;5719;42.714;23.732;2023-03-14T00:28:20;19.92;;;7.38;;
11328;SDS011;5719;42.714;23.732;2023-03-14T00:30:47;12.07;;;6.32;;
11328;SDS011;5719;42.714;23.732;2023-03-14T00:33:15;12.13;;;5.38;;
11328;SDS011;5719;42.714;23.732;2023-03-14T00:35:42;9.80;;;4.93;;
11328;SDS011;5719;42.714;23.732;2023-03-14T00:38:09;10.38;;;4.50;;
11328;SDS011;5719;42.714;23.732;2023-03-14T00:40:38;9.05;;;4.90;;
11328;SDS011;5719;42.714;23.732;2023-03-14T00:43:05;14.57;;;6.70;;
11328;SDS011;5719;42.714;23.732;2023-03-14T00:45:32;11.85;;;6.22;;
11328;SDS011;5719;42.714;23.732;2023-03-14T00:48:00;10.40;;;5.32;;
11328;SDS011;5719;42.714;23.732;2023-03-14T00:50:28;11.13;;;5.15;;
11328;SDS011;5719;42.714;23.732;2023-03-14T00:52:55;8.85;;;5.45;;
11328;SDS011;5719;42.714;23.732;2023-03-14T00:55:22;12.52;;;5.72;;
11328;SDS011;5719;42.714;23.732;2023-03-14T00:57:48;10.13;;;5.50;;
11328;SDS011;5719;42.714;23.732;2023-03-14T01:00:15;10.70;;;4.93;;
11328;SDS011;5719;42.714;23.732;2023-03-14T01:02:43;15.73;;;6.13;;
11328;SDS011;5719;42.714;23.732;2023-03-14T01:05:09;9.40;;;5.53;;
11328;SDS011;5719;42.714;23.732;2023-03-14T01:07:38;19.23;;;7.82;;
11328;SDS011;5719;42.714;23.732;2023-03-14T01:10:05;17.13;;;8.65;;
11328;SDS011;5719;42.714;23.732;2023-03-14T01:12:33;11.63;;;6.15;;
11328;SDS011;5719;42.714;23.732;2023-03-14T01:15:00;12.63;;;6.43;;
11328;SDS011;5719;42.714;23.732;2023-03-14T01:17:27;18.08;;;7.43;;
11328;SDS011;5719;42.714;23.732;2023-03-14T01:19:53;15.68;;;7.35;;
11328;SDS011;5719;42.714;23.732;2023-03-14T01:22:20;14.65;;;6.85;;
11328;SDS011;5719;42.714;23.732;2023-03-14T01:24:48;12.55;;;5.93;;
11328;SDS011;5719;42.714;23.732;2023-03-14T01:27:15;11.88;;;5.10;;
11328;SDS011;5719;42.714;23.732;2023-03-14T01:29:42;15.43;;;6.63;;
11328;SDS011;5719;42.714;23.732;2023-03-14T01:32:09;14.48;;;6.47;;
11328;SDS011;5719;42.714;23.732;2023-03-14T01:34:36;15.15;;;6.03;;
11328;SDS011;5719;42.714;23.732;2023-03-14T01:37:03;16.27;;;6.13;;
11328;SDS011;5719;42.714;23.732;2023-03-14T01:39:30;11.82;;;5.53;;
11328;SDS011;5719;42.714;23.732;2023-03-14T01:41:59;11.13;;;5.43;;
11328;SDS011;5719;42.714;23.732;2023-03-14T01:44:26;15.13;;;5.95;;
11328;SDS011;5719;42.714;23.732;2023-03-14T01:46:53;7.60;;;4.15;;
11328;SDS011;5719;42.714;23.732;2023-03-14T01:49:21;13.43;;;5.00;;
11328;SDS011;5719;42.714;23.732;2023-03-14T01:51:54;13.87;;;5.03;;
11328;SDS011;5719;42.714;23.732;2023-03-14T01:54:24;9.02;;;4.40;;
11328;SDS011;5719;42.714;23.732;2023-03-14T01:56:56;7.90;;;4.47;;
11328;SDS011;5719;42.714;23.732;2023-03-14T01:59:30;11.88;;;4.80;;
11328;SDS011;5719;42.714;23.732;2023-03-14T02:01:59;7.40;;;4.15;;
11328;SDS011;5719;42.714;23.732;2023-03-14T02:04:27;5.60;;;3.90;;
11328;SDS011;5719;42.714;23.732;2023-03-14T02:07:00;8.55;;;4.43;;
11328;SDS011;5719;42.714;23.732;2023-03-14T02:12:00;11.30;;;5.07;;
11328;SDS011;5719;42.714;23.732;2023-03-14T02:14:30;9.45;;;5.30;;
11328;SDS011;5719;42.714;23.732;2023-03-14T02:16:58;11.00;;;4.72;;
11328;SDS011;5719;42.714;23.732;2023-03-14T02:19:39;10.50;;;5.35;;
11328;SDS011;5719;42.714;23.732;2023-03-14T02:22:17;9.35;;;5.20;;
11328;SDS011;5719;42.714;23.732;2023-03-14T02:24:45;10.23;;;5.00;;
11328;SDS011;5719;42.714;23.732;2023-03-14T02:27:24;13.68;;;5.28;;
11328;SDS011;5719;42.714;23.732;2023-03-14T02:29:53;11.77;;;5.25;;
11328;SDS011;5719;42.714;23.732;2023-03-14T02:32:24;7.63;;;4.32;;
11328;SDS011;5719;42.714;23.732;2023-03-14T02:34:54;13.82;;;5.63;;
11328;SDS011;5719;42.714;23.732;2023-03-14T02:37:24;11.70;;;6.05;;
11328;SDS011;5719;42.714;23.732;2023-03-14T02:39:56;12.70;;;5.28;;
11328;SDS011;5719;42.714;23.732;2023-03-14T02:42:24;11.25;;;5.38;;
11328;SDS011;5719;42.714;23.732;2023-03-14T02:44:52;8.77;;;4.38;;
11328;SDS011;5719;42.714;23.732;2023-03-14T02:47:26;12.10;;;5.60;;
11328;SDS011;5719;42.714;23.732;2023-03-14T02:49:57;10.77;;;5.50;;
11328;SDS011;5719;42.714;23.732;2023-03-14T02:52:27;14.80;;;5.63;;
11328;SDS011;5719;42.714;23.732;2023-03-14T02:54:54;10.32;;;5.18;;
11328;SDS011;5719;42.714;23.732;2023-03-14T02:57:21;13.43;;;5.85;;
11328;SDS011;5719;42.714;23.732;2023-03-14T02:59:49;13.27;;;5.78;;
11328;SDS011;5719;42.714;23.732;2023-03-14T03:02:16;10.30;;;4.95;;
11328;SDS011;5719;42.714;23.732;2023-03-14T03:04:43;8.30;;;4.30;;
11328;SDS011;5719;42.714;23.732;2023-03-14T03:07:10;12.65;;;5.25;;
11328;SDS011;5719;42.714;23.732;2023-03-14T03:09:37;11.52;;;5.30;;
11328;SDS011;5719;42.714;23.732;2023-03-14T03:12:03;10.98;;;5.68;;
11328;SDS011;5719;42.714;23.732;2023-03-14T03:14:31;12.55;;;5.80;;
11328;SDS011;5719;42.714;23.732;2023-03-14T03:16:59;15.77;;;6.40;;
11328;SDS011;5719;42.714;23.732;2023-03-14T03:19:26;13.38;;;6.13;;
11328;SDS011;5719;42.714;23.732;2023-03-14T03:21:52;16.75;;;6.45;;
11328;SDS011;5719;42.714;23.732;2023-03-14T03:24:19;10.05;;;5.43;;
11328;SDS011;5719;42.714;23.732;2023-03-14T03:26:46;14.95;;;5.28;;
11328;SDS011;5719;42.714;23.732;2023-03-14T03:29:13;13.27;;;5.57;;
11328;SDS011;5719;42.714;23.732;2023-03-14T03:31:40;13.38;;;5.90;;
11328;SDS011;5719;42.714;23.732;2023-03-14T03:34:08;11.27;;;5.60;;
11328;SDS011;5719;42.714;23.732;2023-03-14T03:36:35;12.02;;;5.68;;
11328;SDS011;5719;42.714;23.732;2023-03-14T03:39:02;9.43;;;5.50;;
11328;SDS011;5719;42.714;23.732;2023-03-14T03:41:29;12.75;;;5.13;;
11328;SDS011;5719;42.714;23.732;2023-03-14T03:43:56;12.20;;;5.03;;
11328;SDS011;5719;42.714;23.732;2023-03-14T03:46:23;13.07;;;4.30;;
11328;SDS011;5719;42.714;23.732;2023-03-14T03:48:53;9.95;;;4.63;;
11328;SDS011;5719;42.714;23.732;2023-03-14T03:51:22;10.90;;;4.90;;
11328;SDS011;5719;42.714;23.732;2023-03-14T03:53:49;15.23;;;6.05;;
11328;SDS011;5719;42.714;23.732;2023-03-14T03:56:17;12.40;;;5.95;;
11328;SDS011;5719;42.714;23.732;2023-03-14T03:58:43;14.68;;;5.70;;
11328;SDS011;5719;42.714;23.732;2023-03-14T04:01:10;14.25;;;5.65;;
11328;SDS011;5719;42.714;23.732;2023-03-14T04:03:37;11.40;;;5.45;;
11328;SDS011;5719;42.714;23.732;2023-03-14T04:06:06;10.02;;;5.57;;
11328;SDS011;5719;42.714;23.732;2023-03-14T04:08:37;13.10;;;5.68;;
11328;SDS011;5719;42.714;23.732;2023-03-14T04:11:04;11.73;;;5.40;;
11328;SDS011;5719;42.714;23.732;2023-03-14T04:13:31;13.45;;;5.32;;
11328;SDS011;5719;42.714;23.732;2023-03-14T04:15:59;15.20;;;5.85;;
11328;SDS011;5719;42.714;23.732;2023-03-14T04:18:26;11.50;;;5.65;;
11328;SDS011;5719;42.714;23.732;2023-03-14T04:20:55;12.32;;;5.30;;
11328;SDS011;5719;42.714;23.732;2023-03-14T04:23:24;11.50;;;4.97;;
11328;SDS011;5719;42.714;23.732;2023-03-14T04:25:52;12.70;;;5.63;;
11328;SDS011;5719;42.714;23.732;2023-03-14T04:28:19;12.25;;;5.03;;
11328;SDS011;5719;42.714;23.732;2023-03-14T04:30:46;13.82;;;5.43;;
11328;SDS011;5719;42.714;23.732;2023-03-14T04:33:13;10.95;;;5.13;;
11328;SDS011;5719;42.714;23.732;2023-03-14T04:35:42;12.05;;;6.00;;
11328;SDS011;5719;42.714;23.732;2023-03-14T04:38:09;8.88;;;5.22;;
11328;SDS011;5719;42.714;23.732;2023-03-14T04:40:36;13.32;;;5.57;;
11328;SDS011;5719;42.714;23.732;2023-03-14T04:43:04;15.18;;;6.10;;
11328;SDS011;5719;42.714;23.732;2023-03-14T04:45:32;14.55;;;6.85;;
11328;SDS011;5719;42.714;23.732;2023-03-14T04:47:58;11.18;;;5.72;;
11328;SDS011;5719;42.714;23.732;2023-03-14T04:50:25;12.27;;;5.93;;
11328;SDS011;5719;42.714;23.732;2023-03-14T04:52:52;10.68;;;5.20;;
11328;SDS011;5719;42.714;23.732;2023-03-14T04:55:19;10.15;;;6.00;;
11328;SDS011;5719;42.714;23.732;2023-03-14T04:57:46;12.02;;;5.72;;
11328;SDS011;5719;42.714;23.732;2023-03-14T05:00:14;8.02;;;5.28;;
11328;SDS011;5719;42.714;23.732;2023-03-14T05:02:43;7.95;;;4.80;;
11328;SDS011;5719;42.714;23.732;2023-03-14T05:05:10;11.07;;;4.90;;
11328;SDS011;5719;42.714;23.732;2023-03-14T05:07:37;7.75;;;4.47;;
11328;SDS011;5719;42.714;23.732;2023-03-14T05:10:04;6.65;;;4.43;;
11328;SDS011;5719;42.714;23.732;2023-03-14T05:12:32;10.68;;;4.60;;
11328;SDS011;5719;42.714;23.732;2023-03-14T05:14:58;9.38;;;4.78;;
11328;SDS011;5719;42.714;23.732;2023-03-14T05:17:27;10.88;;;5.03;;
11328;SDS011;5719;42.714;23.732;2023-03-14T05:19:53;13.40;;;5.65;;
11328;SDS011;5719;42.714;23.732;2023-03-14T05:22:20;10.43;;;5.43;;
11328;SDS011;5719;42.714;23.732;2023-03-14T05:24:47;8.40;;;4.95;;
11328;SDS011;5719;42.714;23.732;2023-03-14T05:27:14;7.45;;;4.93;;
11328;SDS011;5719;42.714;23.732;2023-03-14T05:29:41;10.07;;;5.40;;
11328;SDS011;5719;42.714;23.732;2023-03-14T05:32:08;12.40;;;5.90;;
11328;SDS011;5719;42.714;23.732;2023-03-14T05:34:36;16.45;;;6.90;;
11328;SDS011;5719;42.714;23.732;2023-03-14T05:37:03;11.68;;;5.97;;
11328;SDS011;5719;42.714;23.732;2023-03-14T05:39:29;13.82;;;5.75;;
11328;SDS011;5719;42.714;23.732;2023-03-14T05:41:56;13.18;;;5.82;;
11328;SDS011;5719;42.714;23.732;2023-03-14T05:44:23;11.13;;;5.80;;
11328;SDS011;5719;42.714;23.732;2023-03-14T05:46:50;12.07;;;5.68;;
11328;SDS011;5719;42.714;23.732;2023-03-14T05:49:17;10.35;;;4.85;;
11328;SDS011;5719;42.714;23.732;2023-03-14T05:51:45;15.88;;;5.78;;
11328;SDS011;5719;42.714;23.732;2023-03-14T05:54:12;12.07;;;5.30;;
11328;SDS011;5719;42.714;23.732;2023-03-14T05:56:39;12.00;;;5.20;;
11328;SDS011;5719;42.714;23.732;2023-03-14T05:59:06;9.40;;;5.75;;
11328;SDS011;5719;42.714;23.732;2023-03-14T06:01:34;11.13;;;5.65;;
11328;SDS011;5719;42.714;23.732;2023-03-14T06:04:01;6.03;;;4.65;;
11328;SDS011;5719;42.714;23.732;2023-03-14T06:06:28;6.90;;;4.68;;
11328;SDS011;5719;42.714;23.732;2023-03-14T06:08:56;7.65;;;4.93;;
11328;SDS011;5719;42.714;23.732;2023-03-14T06:11:23;10.98;;;4.78;;
11328;SDS011;5719;42.714;23.732;2023-03-14T06:13:50;9.43;;;5.78;;
11328;SDS011;5719;42.714;23.732;2023-03-14T06:16:17;6.97;;;5.32;;
11328;SDS011;5719;42.714;23.732;2023-03-14T06:18:44;10.38;;;5.50;;
11328;SDS011;5719;42.714;23.732;2023-03-14T06:21:14;10.48;;;4.93;;
11328;SDS011;5719;42.714;23.732;2023-03-14T06:23:41;12.48;;;5.25;;
11328;SDS011;5719;42.714;23.732;2023-03-14T06:26:09;16.52;;;5.78;;
11328;SDS011;5719;42.714;23.732;2023-03-14T06:28:36;20.73;;;6.70;;
11328;SDS011;5719;42.714;23.732;2023-03-14T06:31:04;13.85;;;5.85;;
11328;SDS011;5719;42.714;23.732;2023-03-14T06:33:31;10.68;;;4.80;;
11328;SDS011;5719;42.714;23.732;2023-03-14T06:35:58;11.43;;;4.97;;
11328;SDS011;5719;42.714;23.732;2023-03-14T06:38:25;12.10;;;4.53;;
11328;SDS011;5719;42.714;23.732;2023-03-14T06:40:52;6.95;;;3.85;;
11328;SDS011;5719;42.714;23.732;2023-03-14T06:43:20;14.05;;;4.70;;
11328;SDS011;5719;42.714;23.732;2023-03-14T06:45:47;7.45;;;3.92;;
11328;SDS011;5719;42.714;23.732;2023-03-14T06:48:14;6.45;;;3.38;;
11328;SDS011;5719;42.714;23.732;2023-03-14T06:50:41;4.50;;;3.10;;
11328;SDS011;5719;42.714;23.732;2023-03-14T06:53:08;3.58;;;3.20;;
11328;SDS011;5719;42.714;23.732;2023-03-14T06:55:35;3.28;;;2.67;;
11328;SDS011;5719;42.714;23.732;2023-03-14T06:58:02;3.30;;;2.60;;
11328;SDS011;5719;42.714;23.732;2023-03-14T07:00:31;4.88;;;3.30;;
11328;SDS011;5719;42.714;23.732;2023-03-14T07:02:58;3.42;;;2.88;;
11328;SDS011;5719;42.714;23.732;2023-03-14T07:05:25;3.20;;;2.58;;
11328;SDS011;5719;42.714;23.732;2023-03-14T07:07:52;3.97;;;2.78;;
11328;SDS011;5719;42.714;23.732;2023-03-14T07:10:19;4.57;;;2.50;;
11328;SDS011;5719;42.714;23.732;2023-03-14T07:12:46;2.20;;;2.00;;
11328;SDS011;5719;42.714;23.732;2023-03-14T07:15:13;7.10;;;2.65;;
11328;SDS011;5719;42.714;23.732;2023-03-14T07:17:41;3.15;;;2.05;;
11328;SDS011;5719;42.714;23.732;2023-03-14T07:20:09;5.03;;;2.20;;
11328;SDS011;5719;42.714;23.732;2023-03-14T07:22:36;2.25;;;2.08;;
11328;SDS011;5719;42.714;23.732;2023-03-14T07:25:04;4.45;;;2.35;;
11328;SDS011;5719;42.714;23.732;2023-03-14T07:27:31;3.65;;;2.33;;
11328;SDS011;5719;42.714;23.732;2023-03-14T07:29:58;3.33;;;2.38;;
11328;SDS011;5719;42.714;23.732;2023-03-14T07:32:25;5.82;;;2.38;;
11328;SDS011;5719;42.714;23.732;2023-03-14T07:34:53;2.40;;;2.20;;
11328;SDS011;5719;42.714;23.732;2023-03-14T07:37:20;2.60;;;2.08;;
11328;SDS011;5719;42.714;23.732;2023-03-14T07:39:47;3.92;;;2.40;;
11328;SDS011;5719;42.714;23.732;2023-03-14T07:42:14;3.80;;;2.40;;
11328;SDS011;5719;42.714;23.732;2023-03-14T07:44:40;2.70;;;2.22;;
11328;SDS011;5719;42.714;23.732;2023-03-14T07:47:07;2.47;;;2.20;;
11328;SDS011;5719;42.714;23.732;2023-03-14T07:49:34;3.63;;;2.45;;
11328;SDS011;5719;42.714;23.732;2023-03-14T07:52:02;2.40;;;2.20;;
11328;SDS011;5719;42.714;23.732;2023-03-14T07:54:29;2.35;;;2.20;;
11328;SDS011;5719;42.714;23.732;2023-03-14T07:56:56;4.72;;;2.05;;
11328;SDS011;5719;42.714;23.732;2023-03-14T07:59:25;4.00;;;2.00;;
11328;SDS011;5719;42.714;23.732;2023-03-14T08:01:52;3.03;;;2.10;;
11328;SDS011;5719;42.714;23.732;2023-03-14T08:04:19;4.13;;;2.17;;
11328;SDS011;5719;42.714;23.732;2023-03-14T08:06:46;5.55;;;2.03;;
11328;SDS011;5719;42.714;23.732;2023-03-14T08:09:14;3.30;;;2.10;;
11328;SDS011;5719;42.714;23.732;2023-03-14T08:11:41;2.20;;;2.00;;
11328;SDS011;5719;42.714;23.732;2023-03-14T08:14:08;3.38;;;2.00;;
11328;SDS011;5719;42.714;23.732;2023-03-14T08:16:36;2.10;;;1.90;;
11328;SDS011;5719;42.714;23.732;2023-03-14T08:19:03;1.95;;;1.85;;
11328;SDS011;5719;42.714;23.732;2023-03-14T08:21:30;3.05;;;2.00;;
11328;SDS011;5719;42.714;23.732;2023-03-14T08:23:57;2.20;;;2.00;;
11328;SDS011;5719;42.714;23.732;2023-03-14T08:26:25;2.70;;;2.03;;
11328;SDS011;5719;42.714;23.732;2023-03-14T08:28:52;4.63;;;2.00;;
11328;SDS011;5719;42.714;23.732;2023-03-14T08:31:19;2.03;;;1.77;;
11328;SDS011;5719;42.714;23.732;2023-03-14T08:33:45;4.03;;;2.00;;
11328;SDS011;5719;42.714;23.732;2023-03-14T08:36:12;2.10;;;1.90;;
11328;SDS011;5719;42.714;23.732;2023-03-14T08:38:39;2.20;;;1.90;;
11328;SDS011;5719;42.714;23.732;2023-03-14T08:41:09;2.47;;;2.25;;
11328;SDS011;5719;42.714;23.732;2023-03-14T08:43:37;2.95;;;2.08;;
11328;SDS011;5719;42.714;23.732;2023-03-14T08:46:05;6.70;;;2.33;;
11328;SDS011;5719;42.714;23.732;2023-03-14T08:48:32;1.88;;;1.77;;
11328;SDS011;5719;42.714;23.732;2023-03-14T08:51:03;2.17;;;1.98;;
11328;SDS011;5719;42.714;23.732;2023-03-14T08:53:31;2.95;;;2.00;;
11328;SDS011;5719;42.714;23.732;2023-03-14T08:55:58;4.18;;;2.05;;
11328;SDS011;5719;42.714;23.732;2023-03-14T08:58:25;2.85;;;2.00;;
11328;SDS011;5719;42.714;23.732;2023-03-14T09:00:53;2.33;;;1.83;;
11328;SDS011;5719;42.714;23.732;2023-03-14T09:03:20;4.20;;;2.13;;
11328;SDS011;5719;42.714;23.732;2023-03-14T09:05:49;5.65;;;1.92;;
11328;SDS011;5719;42.714;23.732;2023-03-14T09:08:16;2.08;;;1.88;;
11328;SDS011;5719;42.714;23.732;2023-03-14T09:10:42;2.13;;;1.92;;
11328;SDS011;5719;42.714;23.732;2023-03-14T09:13:09;4.90;;;1.88;;
11328;SDS011;5719;42.714;23.732;2023-03-14T09:15:36;2.45;;;1.70;;
11328;SDS011;5719;42.714;23.732;2023-03-14T09:18:05;2.00;;;1.80;;
11328;SDS011;5719;42.714;23.732;2023-03-14T09:20:32;1.70;;;1.42;;
11328;SDS011;5719;42.714;23.732;2023-03-14T09:22:59;2.00;;;1.58;;
11328;SDS011;5719;42.714;23.732;2023-03-14T09:25:25;2.00;;;1.50;;
11328;SDS011;5719;42.714;23.732;2023-03-14T09:27:52;2.45;;;1.50;;
11328;SDS011;5719;42.714;23.732;2023-03-14T09:30:19;1.75;;;1.58;;
11328;SDS011;5719;42.714;23.732;2023-03-14T09:32:46;1.60;;;1.50;;
11328;SDS011;5719;42.714;23.732;2023-03-14T09:35:15;5.13;;;1.75;;
11328;SDS011;5719;42.714;23.732;2023-03-14T09:37:41;1.73;;;1.63;;
11328;SDS011;5719;42.714;23.732;2023-03-14T09:40:11;3.42;;;1.60;;
11328;SDS011;5719;42.714;23.732;2023-03-14T09:42:40;1.90;;;1.55;;
11328;SDS011;5719;42.714;23.732;2023-03-14T09:45:10;1.50;;;1.40;;
11328;SDS011;5719;42.714;23.732;2023-03-14T09:47:42;1.52;;;1.40;;
11328;SDS011;5719;42.714;23.732;2023-03-14T09:50:13;1.77;;;1.67;;
11328;SDS011;5719;42.714;23.732;2023-03-14T09:52:42;1.77;;;1.67;;
11328;SDS011;5719;42.714;23.732;2023-03-14T09:55:14;1.30;;;1.20;;
11328;SDS011;5719;42.714;23.732;2023-03-14T09:57:43;3.85;;;1.52;;
11328;SDS011;5719;42.714;23.732;2023-03-14T10:00:14;2.28;;;1.45;;
11328;SDS011;5719;42.714;23.732;2023-03-14T10:02:52;4.25;;;1.35;;
11328;SDS011;5719;42.714;23.732;2023-03-14T10:05:22;2.40;;;1.48;;
11328;SDS011;5719;42.714;23.732;2023-03-14T10:07:50;4.25;;;1.35;;
11328;SDS011;5719;42.714;23.732;2023-03-14T10:10:18;1.30;;;1.20;;
11328;SDS011;5719;42.714;23.732;2023-03-14T10:12:47;1.30;;;1.20;;
11328;SDS011;5719;42.714;23.732;2023-03-14T10:15:23;1.55;;;1.40;;
11328;SDS011;5719;42.714;23.732;2023-03-14T10:17:51;2.45;;;1.30;;
11328;SDS011;5719;42.714;23.732;2023-03-14T10:23:16;2.55;;;1.10;;
11328;SDS011;5719;42.714;23.732;2023-03-14T10:25:58;1.45;;;1.35;;
11328;SDS011;5719;42.714;23.732;2023-03-14T10:28:29;2.22;;;1.30;;
11328;SDS011;5719;42.714;23.732;2023-03-14T10:30:58;1.30;;;1.20;;
11328;SDS011;5719;42.714;23.732;2023-03-14T10:33:27;1.83;;;1.60;;
11328;SDS011;5719;42.714;23.732;2023-03-14T10:35:57;4.18;;;1.38;;
11328;SDS011;5719;42.714;23.732;2023-03-14T10:38:26;1.77;;;1.05;;
11328;SDS011;5719;42.714;23.732;2023-03-14T10:40:54;3.20;;;1.20;;
11328;SDS011;5719;42.714;23.732;2023-03-14T10:43:24;3.05;;;1.33;;
11328;SDS011;5719;42.714;23.732;2023-03-14T10:45:54;2.35;;;1.10;;
11328;SDS011;5719;42.714;23.732;2023-03-14T10:48:24;1.90;;;1.15;;
11328;SDS011;5719;42.714;23.732;2023-03-14T10:53:33;1.15;;;1.05;;
11328;SDS011;5719;42.714;23.732;2023-03-14T10:56:05;1.15;;;1.05;;
11328;SDS011;5719;42.714;23.732;2023-03-14T10:58:33;2.33;;;1.30;;
11328;SDS011;5719;42.714;23.732;2023-03-14T11:01:08;9.85;;;1.60;;
11328;SDS011;5719;42.714;23.732;2023-03-14T11:03:51;2.30;;;1.08;;
11328;SDS011;5719;42.714;23.732;2023-03-14T11:06:25;1.27;;;1.00;;
11328;SDS011;5719;42.714;23.732;2023-03-14T11:09:02;1.38;;;1.00;;
11328;SDS011;5719;42.714;23.732;2023-03-14T11:11:36;2.00;;;1.20;;
11328;SDS011;5719;42.714;23.732;2023-03-14T11:14:08;1.90;;;1.27;;
11328;SDS011;5719;42.714;23.732;2023-03-14T11:16:46;2.15;;;1.00;;
11328;SDS011;5719;42.714;23.732;2023-03-14T11:22:16;1.15;;;0.90;;
11328;SDS011;5719;42.714;23.732;2023-03-14T11:24:49;1.25;;;1.10;;
11328;SDS011;5719;42.714;23.732;2023-03-14T11:27:42;1.33;;;1.20;;
11328;SDS011;5719;42.714;23.732;2023-03-14T11:30:16;1.95;;;0.98;;
11328;SDS011;5719;42.714;23.732;2023-03-14T11:32:46;3.13;;;1.20;;
11328;SDS011;5719;42.714;23.732;2023-03-14T11:35:18;1.00;;;1.00;;
11328;SDS011;5719;42.714;23.732;2023-03-14T11:37:53;1.02;;;1.00;;
11328;SDS011;5719;42.714;23.732;2023-03-14T11:40:25;1.60;;;1.25;;
11328;SDS011;5719;42.714;23.732;2023-03-14T11:43:04;3.05;;;1.00;;
11328;SDS011;5719;42.714;23.732;2023-03-14T11:48:13;1.55;;;1.10;;
11328;SDS011;5719;42.714;23.732;2023-03-14T11:50:44;1.50;;;1.10;;
11328;SDS011;5719;42.714;23.732;2023-03-14T11:53:18;3.28;;;1.27;;
11328;SDS011;5719;42.714;23.732;2023-03-14T11:55:48;2.45;;;1.20;;
11328;SDS011;5719;42.714;23.732;2023-03-14T11:58:17;3.05;;;0.85;;
11328;SDS011;5719;42.714;23.732;2023-03-14T12:00:48;1.33;;;1.23;;
11328;SDS011;5719;42.714;23.732;2023-03-14T12:03:21;2.80;;;0.80;;
11328;SDS011;5719;42.714;23.732;2023-03-14T12:05:59;5.50;;;0.77;;
11328;SDS011;5719;42.714;23.732;2023-03-14T12:08:44;1.00;;;0.90;;
11328;SDS011;5719;42.714;23.732;2023-03-14T12:11:15;0.80;;;0.80;;
11328;SDS011;5719;42.714;23.732;2023-03-14T12:13:47;2.78;;;0.90;;
11328;SDS011;5719;42.714;23.732;2023-03-14T12:16:27;1.20;;;0.88;;
11328;SDS011;5719;42.714;23.732;2023-03-14T12:19:13;1.20;;;0.90;;
11328;SDS011;5719;42.714;23.732;2023-03-14T12:22:06;1.77;;;0.90;;
11328;SDS011;5719;42.714;23.732;2023-03-14T12:24:44;1.60;;;0.98;;
11328;SDS011;5719;42.714;23.732;2023-03-14T12:30:15;1.17;;;1.08;;
11328;SDS011;5719;42.714;23.732;2023-03-14T12:36:00;2.00;;;0.95;;
11328;SDS011;5719;42.714;23.732;2023-03-14T12:38:39;1.17;;;0.88;;
11328;SDS011;5719;42.714;23.732;2023-03-14T12:41:17;1.63;;;0.65;;
11328;SDS011;5719;42.714;23.732;2023-03-14T12:43:46;1.20;;;0.70;;
11328;SDS011;5719;42.714;23.732;2023-03-14T12:46:23;0.65;;;0.55;;
11328;SDS011;5719;42.714;23.732;2023-03-14T12:48:54;0.60;;;0.60;;
11328;SDS011;5719;42.714;23.732;2023-03-14T12:51:33;0.85;;;0.70;;
11328;SDS011;5719;42.714;23.732;2023-03-14T12:57:04;0.63;;;0.50;;
11328;SDS011;5719;42.714;23.732;2023-03-14T12:59:42;1.02;;;0.65;;
11328;SDS011;5719;42.714;23.732;2023-03-14T13:04:50;0.82;;;0.77;;
11328;SDS011;5719;42.714;23.732;2023-03-14T13:07:31;2.13;;;0.60;;
11328;SDS011;5719;42.714;23.732;2023-03-14T13:10:00;0.70;;;0.70;;
11328;SDS011;5719;42.714;23.732;2023-03-14T13:12:46;0.82;;;0.82;;
11328;SDS011;5719;42.714;23.732;2023-03-14T13:15:22;2.05;;;0.82;;
11328;SDS011;5719;42.714;23.732;2023-03-14T13:17:54;3.90;;;1.08;;
11328;SDS011;5719;42.714;23.732;2023-03-14T13:20:30;3.53;;;0.82;;
11328;SDS011;5719;42.714;23.732;2023-03-14T13:22:59;1.33;;;0.73;;
11328;SDS011;5719;42.714;23.732;2023-03-14T13:25:29;1.50;;;0.70;;
11328;SDS011;5719;42.714;23.732;2023-03-14T13:28:00;3.17;;;0.90;;
11328;SDS011;5719;42.714;23.732;2023-03-14T13:30:28;1.65;;;1.08;;
11328;SDS011;5719;42.714;23.732;2023-03-14T13:33:02;4.20;;;0.98;;
11328;SDS011;5719;42.714;23.732;2023-03-14T13:35:38;1.33;;;0.90;;
11328;SDS011;5719;42.714;23.732;2023-03-14T13:38:13;0.88;;;0.85;;
11328;SDS011;5719;42.714;23.732;2023-03-14T13:40:43;3.58;;;0.93;;
11328;SDS011;5719;42.714;23.732;2023-03-14T13:43:15;0.73;;;0.73;;
11328;SDS011;5719;42.714;23.732;2023-03-14T13:45:44;1.20;;;1.02;;
11328;SDS011;5719;42.714;23.732;2023-03-14T13:48:15;2.10;;;0.88;;
11328;SDS011;5719;42.714;23.732;2023-03-14T13:50:50;4.78;;;1.20;;
11328;SDS011;5719;42.714;23.732;2023-03-14T13:53:19;3.90;;;0.98;;
11328;SDS011;5719;42.714;23.732;2023-03-14T13:55:46;1.00;;;1.00;;
11328;SDS011;5719;42.714;23.732;2023-03-14T13:58:21;1.52;;;1.13;;
11328;SDS011;5719;42.714;23.732;2023-03-14T14:00:54;3.28;;;1.20;;
11328;SDS011;5719;42.714;23.732;2023-03-14T14:03:23;1.92;;;1.33;;
11328;SDS011;5719;42.714;23.732;2023-03-14T14:05:50;1.33;;;1.23;;
11328;SDS011;5719;42.714;23.732;2023-03-14T14:08:17;3.70;;;1.55;;
11328;SDS011;5719;42.714;23.732;2023-03-14T14:10:45;4.38;;;1.20;;
11328;SDS011;5719;42.714;23.732;2023-03-14T14:13:15;3.13;;;1.60;;
11328;SDS011;5719;42.714;23.732;2023-03-14T14:15:46;3.78;;;1.20;;
11328;SDS011;5719;42.714;23.732;2023-03-14T14:18:16;3.58;;;1.38;;
11328;SDS011;5719;42.714;23.732;2023-03-14T14:20:46;1.75;;;1.33;;
11328;SDS011;5719;42.714;23.732;2023-03-14T14:23:14;1.58;;;1.40;;
11328;SDS011;5719;42.714;23.732;2023-03-14T14:25:44;3.25;;;1.67;;
11328;SDS011;5719;42.714;23.732;2023-03-14T14:28:15;2.47;;;1.70;;
11328;SDS011;5719;42.714;23.732;2023-03-14T14:30:46;11.50;;;2.00;;
11328;SDS011;5719;42.714;23.732;2023-03-14T14:33:20;7.82;;;3.15;;
11328;SDS011;5719;42.714;23.732;2023-03-14T14:35:52;2.42;;;1.92;;
11328;SDS011;5719;42.714;23.732;2023-03-14T14:38:22;2.70;;;2.20;;
11328;SDS011;5719;42.714;23.732;2023-03-14T14:40:50;2.10;;;1.90;;
11328;SDS011;5719;42.714;23.732;2023-03-14T14:43:21;2.38;;;2.08;;
11328;SDS011;5719;42.714;23.732;2023-03-14T14:45:52;2.97;;;2.20;;
11328;SDS011;5719;42.714;23.732;2023-03-14T14:48:22;3.83;;;1.95;;
11328;SDS011;5719;42.714;23.732;2023-03-14T14:50:54;4.53;;;2.35;;
11328;SDS011;5719;42.714;23.732;2023-03-14T14:53:29;3.13;;;2.28;;
11328;SDS011;5719;42.714;23.732;2023-03-14T14:55:58;6.10;;;2.50;;
11328;SDS011;5719;42.714;23.732;2023-03-14T14:58:29;3.00;;;2.75;;
11328;SDS011;5719;42.714;23.732;2023-03-14T15:01:05;2.80;;;2.60;;
11328;SDS011;5719;42.714;23.732;2023-03-14T15:03:36;3.65;;;2.40;;
11328;SDS011;5719;42.714;23.732;2023-03-14T15:06:03;5.93;;;2.70;;
11328;SDS011;5719;42.714;23.732;2023-03-14T15:08:31;5.00;;;2.67;;
11328;SDS011;5719;42.714;23.732;2023-03-14T15:10:58;3.72;;;2.72;;
11328;SDS011;5719;42.714;23.732;2023-03-14T15:13:25;8.77;;;2.90;;
11328;SDS011;5719;42.714;23.732;2023-03-14T15:15:52;4.20;;;2.88;;
11328;SDS011;5719;42.714;23.732;2023-03-14T15:18:23;5.35;;;2.97;;
11328;SDS011;5719;42.714;23.732;2023-03-14T15:20:51;4.07;;;3.15;;